sensor_id;sensor_type;location;lat;lon;timestamp;pressure;altitude;pressure_sealevel;temperature;humidity
18765;BME280;9511;54.242;12.448;2023-02-02T04:04:35;100812.13;;;2.52;90.58
18765;BME280;9511;54.242;12.448;2023-02-02T04:07:03;100810.44;;;2.53;90.36
18765;BME280;9511;54.242;12.448;2023-02-02T04:09:32;100832.31;;;2.55;90.62
18765;BME280;9511;54.242;12.448;2023-02-02T04:11:59;100829.63;;;2.53;91.10
18765;BME280;9511;54.242;12.448;2023-02-02T04:14:26;100836.44;;;2.51;91.36
18765;BME280;9511;54.242;12.448;2023-02-02T04:16:54;100847.00;;;2.53;91.94
18765;BME280;9511;54.242;12.448;2023-02-02T04:19:21;100843.47;;;2.52;92.03
18765;BME280;9511;54.242;12.448;2023-02-02T04:21:49;100846.06;;;2.52;92.36
18765;BME280;9511;54.242;12.448;2023-02-02T04:24:17;100852.94;;;2.50;92.71
18765;BME280;9511;54.242;12.448;2023-02-02T04:26:44;100858.97;;;2.49;92.98
18765;BME280;9511;54.242;12.448;2023-02-02T04:29:11;100858.06;;;2.49;93.73
18765;BME280;9511;54.242;12.448;2023-02-02T04:31:39;100864.19;;;2.49;93.75
18765;BME280;9511;54.242;12.448;2023-02-02T04:34:06;100876.06;;;2.44;93.58
18765;BME280;9511;54.242;12.448;2023-02-02T04:36:33;100863.63;;;2.40;93.79
18765;BME280;9511;54.242;12.448;2023-02-02T04:39:02;100874.00;;;2.38;93.88
18765;BME280;9511;54.242;12.448;2023-02-02T04:41:29;100873.09;;;2.38;93.00
18765;BME280;9511;54.242;12.448;2023-02-02T04:43:57;100870.41;;;2.36;93.16
18765;BME280;9511;54.242;12.448;2023-02-02T04:46:24;100878.03;;;2.33;93.52
18765;BME280;9511;54.242;12.448;2023-02-02T04:48:53;100891.91;;;2.32;93.78
18765;BME280;9511;54.242;12.448;2023-02-02T04:51:20;100881.25;;;2.29;93.42
18765;BME280;9511;54.242;12.448;2023-02-02T04:53:47;100896.75;;;2.26;93.25
18765;BME280;9511;54.242;12.448;2023-02-02T04:56:17;100899.44;;;2.28;93.06
18765;BME280;9511;54.242;12.448;2023-02-02T04:58:45;100898.38;;;2.24;92.93
18765;BME280;9511;54.242;12.448;2023-02-02T05:01:16;100903.25;;;2.18;93.06
18765;BME280;9511;54.242;12.448;2023-02-02T05:03:44;100906.75;;;2.19;93.03
18765;BME280;9511;54.242;12.448;2023-02-02T05:06:12;100903.41;;;2.21;92.89
18765;BME280;9511;54.242;12.448;2023-02-02T05:08:40;100906.81;;;2.20;92.83
18765;BME280;9511;54.242;12.448;2023-02-02T05:11:09;100912.03;;;2.20;93.39
18765;BME280;9511;54.242;12.448;2023-02-02T05:13:38;100911.69;;;2.14;92.79
18765;BME280;9511;54.242;12.448;2023-02-02T05:16:06;100922.72;;;2.10;92.61
18765;BME280;9511;54.242;12.448;2023-02-02T05:18:33;100918.84;;;2.03;92.61
18765;BME280;9511;54.242;12.448;2023-02-02T05:21:02;100924.78;;;2.01;92.66
18765;BME280;9511;54.242;12.448;2023-02-02T05:23:30;100929.91;;;2.42;92.96
18765;BME280;9511;54.242;12.448;2023-02-02T05:25:57;100924.88;;;2.60;93.08
18765;BME280;9511;54.242;12.448;2023-02-02T05:28:25;100927.94;;;2.67;92.48
18765;BME280;9511;54.242;12.448;2023-02-02T05:30:53;100925.25;;;2.66;91.89
18765;BME280;9511;54.242;12.448;2023-02-02T05:33:21;100928.13;;;2.56;91.36
18765;BME280;9511;54.242;12.448;2023-02-02T05:35:48;100928.13;;;2.56;90.80
18765;BME280;9511;54.242;12.448;2023-02-02T05:38:16;100936.41;;;2.49;90.83
18765;BME280;9511;54.242;12.448;2023-02-02T05:40:43;100938.94;;;2.47;90.97
18765;BME280;9511;54.242;12.448;2023-02-02T05:43:11;100943.03;;;2.44;91.20
18765;BME280;9511;54.242;12.448;2023-02-02T05:45:38;100946.47;;;2.43;91.27
18765;BME280;9511;54.242;12.448;2023-02-02T05:48:08;100947.91;;;2.37;91.61
18765;BME280;9511;54.242;12.448;2023-02-02T05:50:35;100949.38;;;2.47;91.89
18765;BME280;9511;54.242;12.448;2023-02-02T05:53:03;100960.88;;;2.51;92.06
18765;BME280;9511;54.242;12.448;2023-02-02T05:55:30;100960.94;;;2.37;91.90
18765;BME280;9511;54.242;12.448;2023-02-02T05:57:58;100961.72;;;2.22;91.85
18765;BME280;9511;54.242;12.448;2023-02-02T06:00:25;100960.44;;;2.15;92.26
18765;BME280;9511;54.242;12.448;2023-02-02T06:02:52;100974.31;;;2.14;93.01
18765;BME280;9511;54.242;12.448;2023-02-02T06:05:21;100969.31;;;2.04;93.70
18765;BME280;9511;54.242;12.448;2023-02-02T06:07:48;100974.44;;;2.02;94.25
18765;BME280;9511;54.242;12.448;2023-02-02T06:10:15;100980.19;;;1.97;94.47
18765;BME280;9511;54.242;12.448;2023-02-02T06:12:42;100991.50;;;1.97;95.37
18765;BME280;9511;54.242;12.448;2023-02-02T06:15:10;100994.22;;;1.99;95.66
18765;BME280;9511;54.242;12.448;2023-02-02T06:17:37;100993.91;;;1.94;96.17
18765;BME280;9511;54.242;12.448;2023-02-02T06:20:05;101006.19;;;1.95;96.89
18765;BME280;9511;54.242;12.448;2023-02-02T06:22:34;101005.97;;;1.92;97.14
18765;BME280;9511;54.242;12.448;2023-02-02T06:25:03;101019.91;;;1.93;97.38
18765;BME280;9511;54.242;12.448;2023-02-02T06:27:30;101023.41;;;1.93;97.72
18765;BME280;9511;54.242;12.448;2023-02-02T06:29:57;101029.53;;;1.94;97.75
18765;BME280;9511;54.242;12.448;2023-02-02T06:32:27;101037.34;;;1.94;97.79
18765;BME280;9511;54.242;12.448;2023-02-02T06:34:55;101035.84;;;1.97;98.24
18765;BME280;9511;54.242;12.448;2023-02-02T06:37:22;101048.09;;;1.98;98.32
18765;BME280;9511;54.242;12.448;2023-02-02T06:39:51;101051.69;;;2.00;98.78
18765;BME280;9511;54.242;12.448;2023-02-02T06:42:18;101049.38;;;2.05;98.80
18765;BME280;9511;54.242;12.448;2023-02-02T06:44:45;101056.59;;;2.09;98.94
18765;BME280;9511;54.242;12.448;2023-02-02T06:47:12;101073.38;;;2.12;99.04
18765;BME280;9511;54.242;12.448;2023-02-02T06:49:39;101071.84;;;2.16;99.07
18765;BME280;9511;54.242;12.448;2023-02-02T06:52:06;101083.38;;;2.20;98.63
18765;BME280;9511;54.242;12.448;2023-02-02T06:54:34;101085.19;;;2.21;98.31
18765;BME280;9511;54.242;12.448;2023-02-02T06:57:02;101096.53;;;2.21;97.83
18765;BME280;9511;54.242;12.448;2023-02-02T06:59:30;101099.94;;;2.20;97.33
18765;BME280;9511;54.242;12.448;2023-02-02T07:01:57;101114.78;;;2.21;96.74
18765;BME280;9511;54.242;12.448;2023-02-02T07:04:24;101113.97;;;2.22;96.48
18765;BME280;9511;54.242;12.448;2023-02-02T07:06:51;101111.38;;;2.22;96.38
18765;BME280;9511;54.242;12.448;2023-02-02T07:09:19;101119.31;;;2.24;95.99
18765;BME280;9511;54.242;12.448;2023-02-02T07:11:46;101132.75;;;2.30;95.66
18765;BME280;9511;54.242;12.448;2023-02-02T07:14:14;101131.06;;;2.30;94.98
18765;BME280;9511;54.242;12.448;2023-02-02T07:16:42;101146.09;;;2.34;94.52
18765;BME280;9511;54.242;12.448;2023-02-02T07:19:09;101144.38;;;2.35;94.23
18765;BME280;9511;54.242;12.448;2023-02-02T07:21:36;101156.53;;;2.34;94.44
18765;BME280;9511;54.242;12.448;2023-02-02T07:24:04;101146.09;;;2.34;94.10
18765;BME280;9511;54.242;12.448;2023-02-02T07:26:33;101157.56;;;2.36;94.32
18765;BME280;9511;54.242;12.448;2023-02-02T07:29:01;101167.19;;;2.37;93.63
18765;BME280;9511;54.242;12.448;2023-02-02T07:31:30;101154.13;;;2.37;93.20
18765;BME280;9511;54.242;12.448;2023-02-02T07:33:57;101165.56;;;2.39;93.67
18765;BME280;9511;54.242;12.448;2023-02-02T07:36:25;101168.16;;;2.39;93.70
18765;BME280;9511;54.242;12.448;2023-02-02T07:38:52;101176.31;;;2.44;93.18
18765;BME280;9511;54.242;12.448;2023-02-02T07:41:22;101182.34;;;2.30;93.57
18765;BME280;9511;54.242;12.448;2023-02-02T07:43:50;101192.38;;;2.10;93.62
18765;BME280;9511;54.242;12.448;2023-02-02T07:46:18;101189.69;;;2.09;93.92
18765;BME280;9511;54.242;12.448;2023-02-02T07:48:47;101194.28;;;2.00;94.13
18765;BME280;9511;54.242;12.448;2023-02-02T07:51:16;101199.50;;;2.00;94.30
18765;BME280;9511;54.242;12.448;2023-02-02T07:53:45;101202.50;;;1.93;94.45
18765;BME280;9511;54.242;12.448;2023-02-02T07:56:15;101201.13;;;1.98;94.66
18765;BME280;9511;54.242;12.448;2023-02-02T07:58:43;101220.69;;;1.91;94.37
18765;BME280;9511;54.242;12.448;2023-02-02T08:01:12;101215.97;;;1.85;94.48
18765;BME280;9511;54.242;12.448;2023-02-02T08:03:40;101229.81;;;1.84;94.10
18765;BME280;9511;54.242;12.448;2023-02-02T08:06:12;101231.38;;;1.82;94.09
18765;BME280;9511;54.242;12.448;2023-02-02T08:08:40;101251.56;;;1.85;93.70
18765;BME280;9511;54.242;12.448;2023-02-02T08:11:09;101255.66;;;1.81;93.27
18765;BME280;9511;54.242;12.448;2023-02-02T08:13:37;101258.84;;;1.77;93.45
18765;BME280;9511;54.242;12.448;2023-02-02T08:16:05;101274.72;;;1.80;92.96
18765;BME280;9511;54.242;12.448;2023-02-02T08:18:32;101280.13;;;1.83;92.91
18765;BME280;9511;54.242;12.448;2023-02-02T08:21:00;101288.09;;;1.85;92.59
18765;BME280;9511;54.242;12.448;2023-02-02T08:23:29;101286.97;;;1.81;92.13
18765;BME280;9511;54.242;12.448;2023-02-02T08:26:05;101291.19;;;1.79;92.45
18765;BME280;9511;54.242;12.448;2023-02-02T08:28:32;101298.03;;;1.91;92.28
18765;BME280;9511;54.242;12.448;2023-02-02T08:31:03;101307.38;;;2.00;91.66
18765;BME280;9511;54.242;12.448;2023-02-02T08:33:30;101310.53;;;2.08;91.55
18765;BME280;9511;54.242;12.448;2023-02-02T08:35:57;101316.63;;;2.08;90.96
18765;BME280;9511;54.242;12.448;2023-02-02T08:38:25;101316.75;;;2.10;90.60
18765;BME280;9511;54.242;12.448;2023-02-02T08:40:53;101330.59;;;2.09;89.97
18765;BME280;9511;54.242;12.448;2023-02-02T08:43:20;101333.88;;;2.06;89.59
18765;BME280;9511;54.242;12.448;2023-02-02T08:45:49;101338.03;;;2.16;89.49
18765;BME280;9511;54.242;12.448;2023-02-02T08:48:17;101341.28;;;2.25;88.89
18765;BME280;9511;54.242;12.448;2023-02-02T08:50:51;101336.13;;;2.13;87.85
18765;BME280;9511;54.242;12.448;2023-02-02T08:53:19;101343.81;;;1.99;86.53
18765;BME280;9511;54.242;12.448;2023-02-02T08:55:46;101338.97;;;1.92;85.99
18765;BME280;9511;54.242;12.448;2023-02-02T08:58:15;101356.00;;;1.86;85.10
18765;BME280;9511;54.242;12.448;2023-02-02T09:00:42;101360.22;;;1.84;84.49
18765;BME280;9511;54.242;12.448;2023-02-02T09:03:09;101368.47;;;1.91;84.40
18765;BME280;9511;54.242;12.448;2023-02-02T09:05:36;101374.03;;;1.83;83.76
18765;BME280;9511;54.242;12.448;2023-02-02T09:08:04;101385.88;;;1.78;83.94
18765;BME280;9511;54.242;12.448;2023-02-02T09:10:34;101384.38;;;1.82;83.85
18765;BME280;9511;54.242;12.448;2023-02-02T09:13:01;101389.34;;;1.91;83.07
18765;BME280;9511;54.242;12.448;2023-02-02T09:15:30;101396.88;;;1.99;83.00
18765;BME280;9511;54.242;12.448;2023-02-02T09:17:57;101385.53;;;1.99;82.16
18765;BME280;9511;54.242;12.448;2023-02-02T09:20:24;101397.06;;;2.14;82.21
18765;BME280;9511;54.242;12.448;2023-02-02T09:22:54;101394.97;;;2.22;82.18
18765;BME280;9511;54.242;12.448;2023-02-02T09:25:21;101408.09;;;2.23;82.21
18765;BME280;9511;54.242;12.448;2023-02-02T09:27:49;101409.06;;;2.12;81.58
18765;BME280;9511;54.242;12.448;2023-02-02T09:30:17;101415.94;;;2.23;81.67
18765;BME280;9511;54.242;12.448;2023-02-02T09:32:48;101426.03;;;2.30;82.12
18765;BME280;9511;54.242;12.448;2023-02-02T09:35:16;101435.84;;;2.34;82.05
18765;BME280;9511;54.242;12.448;2023-02-02T09:37:43;101442.97;;;2.24;81.37
18765;BME280;9511;54.242;12.448;2023-02-02T09:40:14;101442.59;;;2.31;81.67
18765;BME280;9511;54.242;12.448;2023-02-02T09:42:51;101443.88;;;2.24;81.49
18765;BME280;9511;54.242;12.448;2023-02-02T09:45:25;101449.72;;;2.33;81.38
18765;BME280;9511;54.242;12.448;2023-02-02T09:47:59;101459.56;;;2.37;80.88
18765;BME280;9511;54.242;12.448;2023-02-02T09:50:44;101457.78;;;2.36;80.81
18765;BME280;9511;54.242;12.448;2023-02-02T09:53:22;101460.00;;;2.44;80.69
18765;BME280;9511;54.242;12.448;2023-02-02T09:55:56;101460.81;;;2.56;80.42
18765;BME280;9511;54.242;12.448;2023-02-02T09:58:27;101466.06;;;2.56;80.58
18765;BME280;9511;54.242;12.448;2023-02-02T10:01:00;101474.59;;;2.53;80.60
18765;BME280;9511;54.242;12.448;2023-02-02T10:03:35;101478.16;;;2.42;80.37
18765;BME280;9511;54.242;12.448;2023-02-02T10:06:13;101486.03;;;2.55;80.02
18765;BME280;9511;54.242;12.448;2023-02-02T10:08:47;101475.28;;;2.51;80.32
18765;BME280;9511;54.242;12.448;2023-02-02T10:11:28;101481.09;;;2.47;80.43
18765;BME280;9511;54.242;12.448;2023-02-02T10:14:00;101497.34;;;2.43;80.11
18765;BME280;9511;54.242;12.448;2023-02-02T10:16:29;101512.22;;;2.44;80.26
18765;BME280;9511;54.242;12.448;2023-02-02T10:19:00;101498.09;;;2.53;80.02
18765;BME280;9511;54.242;12.448;2023-02-02T10:21:33;101509.03;;;2.48;80.40
18765;BME280;9511;54.242;12.448;2023-02-02T10:24:13;101510.03;;;2.50;80.33
18765;BME280;9511;54.242;12.448;2023-02-02T10:26:44;101518.09;;;2.53;80.34
18765;BME280;9511;54.242;12.448;2023-02-02T10:29:16;101529.16;;;2.62;80.59
18765;BME280;9511;54.242;12.448;2023-02-02T10:31:52;101531.84;;;2.63;80.55
18765;BME280;9511;54.242;12.448;2023-02-02T10:34:30;101535.44;;;2.52;80.23
18765;BME280;9511;54.242;12.448;2023-02-02T10:37:09;101535.94;;;2.47;79.95
18765;BME280;9511;54.242;12.448;2023-02-02T10:39:54;101541.22;;;2.60;79.96
18765;BME280;9511;54.242;12.448;2023-02-02T10:42:33;101555.59;;;2.66;80.30
18765;BME280;9511;54.242;12.448;2023-02-02T10:45:12;101553.22;;;2.58;80.13
18765;BME280;9511;54.242;12.448;2023-02-02T10:47:40;101558.53;;;2.71;80.70
18765;BME280;9511;54.242;12.448;2023-02-02T10:50:16;101567.28;;;2.72;80.31
18765;BME280;9511;54.242;12.448;2023-02-02T10:52:47;101561.34;;;2.74;80.31
18765;BME280;9511;54.242;12.448;2023-02-02T10:55:20;101564.97;;;2.76;80.05
18765;BME280;9511;54.242;12.448;2023-02-02T10:57:59;101568.22;;;2.60;80.22
18765;BME280;9511;54.242;12.448;2023-02-02T11:00:31;101583.19;;;2.63;80.51
18765;BME280;9511;54.242;12.448;2023-02-02T11:03:01;101584.03;;;2.75;80.61
18765;BME280;9511;54.242;12.448;2023-02-02T11:05:31;101575.63;;;2.79;79.98
18765;BME280;9511;54.242;12.448;2023-02-02T11:08:18;101578.72;;;2.74;78.72
18765;BME280;9511;54.242;12.448;2023-02-02T11:10:49;101585.47;;;2.70;78.45
18765;BME280;9511;54.242;12.448;2023-02-02T11:13:26;101589.44;;;2.65;78.44
18765;BME280;9511;54.242;12.448;2023-02-02T11:16:17;101596.03;;;2.85;79.09
18765;BME280;9511;54.242;12.448;2023-02-02T11:18:45;101599.31;;;2.94;79.17
18765;BME280;9511;54.242;12.448;2023-02-02T11:21:18;101600.69;;;2.89;79.38
18765;BME280;9511;54.242;12.448;2023-02-02T11:23:54;101602.44;;;3.02;79.36
18765;BME280;9511;54.242;12.448;2023-02-02T11:26:22;101609.13;;;3.10;79.07
18765;BME280;9511;54.242;12.448;2023-02-02T11:28:52;101609.63;;;3.17;78.21
18765;BME280;9511;54.242;12.448;2023-02-02T11:31:31;101615.09;;;2.96;78.12
18765;BME280;9511;54.242;12.448;2023-02-02T11:34:13;101623.09;;;3.10;78.23
18765;BME280;9511;54.242;12.448;2023-02-02T11:37:02;101628.53;;;3.27;78.59
18765;BME280;9511;54.242;12.448;2023-02-02T11:39:36;101625.34;;;3.44;78.20
18765;BME280;9511;54.242;12.448;2023-02-02T11:42:05;101628.94;;;3.19;77.87
18765;BME280;9511;54.242;12.448;2023-02-02T11:44:34;101626.97;;;3.42;77.47
18765;BME280;9511;54.242;12.448;2023-02-02T11:47:04;101638.94;;;3.38;78.02
18765;BME280;9511;54.242;12.448;2023-02-02T11:49:36;101636.44;;;3.53;77.50
18765;BME280;9511;54.242;12.448;2023-02-02T11:52:15;101642.41;;;3.64;76.97
18765;BME280;9511;54.242;12.448;2023-02-02T11:54:46;101647.63;;;3.77;76.83
18765;BME280;9511;54.242;12.448;2023-02-02T11:57:16;101642.22;;;3.74;76.25
18765;BME280;9511;54.242;12.448;2023-02-02T11:59:45;101653.69;;;3.76;76.57
18765;BME280;9511;54.242;12.448;2023-02-02T12:02:22;101642.31;;;3.76;76.27
18765;BME280;9511;54.242;12.448;2023-02-02T12:04:51;101644.22;;;3.78;76.53
18765;BME280;9511;54.242;12.448;2023-02-02T12:07:25;101648.47;;;4.03;76.83
18765;BME280;9511;54.242;12.448;2023-02-02T12:09:56;101644.22;;;3.91;76.29
18765;BME280;9511;54.242;12.448;2023-02-02T12:12:36;101655.00;;;4.09;76.66
18765;BME280;9511;54.242;12.448;2023-02-02T12:15:15;101657.13;;;4.02;75.90
18765;BME280;9511;54.242;12.448;2023-02-02T12:17:47;101653.47;;;3.99;75.55
18765;BME280;9511;54.242;12.448;2023-02-02T12:20:21;101664.06;;;4.14;75.53
18765;BME280;9511;54.242;12.448;2023-02-02T12:23:07;101662.63;;;4.33;75.76
18765;BME280;9511;54.242;12.448;2023-02-02T12:25:52;101665.25;;;4.33;75.22
18765;BME280;9511;54.242;12.448;2023-02-02T12:28:34;101663.31;;;4.43;75.06
18765;BME280;9511;54.242;12.448;2023-02-02T12:31:11;101675.91;;;4.49;74.98
18765;BME280;9511;54.242;12.448;2023-02-02T12:33:45;101668.88;;;4.35;75.08
18765;BME280;9511;54.242;12.448;2023-02-02T12:36:24;101664.63;;;4.23;75.11
18765;BME280;9511;54.242;12.448;2023-02-02T12:39:08;101667.53;;;4.41;74.97
18765;BME280;9511;54.242;12.448;2023-02-02T12:41:47;101665.53;;;4.50;74.18
18765;BME280;9511;54.242;12.448;2023-02-02T12:44:22;101668.81;;;4.61;74.26
18765;BME280;9511;54.242;12.448;2023-02-02T12:47:00;101673.72;;;4.70;74.02
18765;BME280;9511;54.242;12.448;2023-02-02T12:49:41;101683.16;;;4.94;73.72
18765;BME280;9511;54.242;12.448;2023-02-02T12:52:24;101683.03;;;4.65;73.82
18765;BME280;9511;54.242;12.448;2023-02-02T12:55:09;101678.06;;;4.83;74.34
18765;BME280;9511;54.242;12.448;2023-02-02T12:57:48;101678.72;;;4.93;74.18
18765;BME280;9511;54.242;12.448;2023-02-02T13:00:27;101679.28;;;5.02;73.67
18765;BME280;9511;54.242;12.448;2023-02-02T13:03:12;101679.66;;;5.09;73.06
18765;BME280;9511;54.242;12.448;2023-02-02T13:05:53;101682.50;;;5.26;73.46
18765;BME280;9511;54.242;12.448;2023-02-02T13:08:25;101691.84;;;5.36;72.58
18765;BME280;9511;54.242;12.448;2023-02-02T13:10:59;101685.91;;;5.53;72.92
18765;BME280;9511;54.242;12.448;2023-02-02T13:13:32;101694.66;;;5.39;72.45
18765;BME280;9511;54.242;12.448;2023-02-02T13:16:06;101698.50;;;4.88;73.52
18765;BME280;9511;54.242;12.448;2023-02-02T13:18:38;101690.50;;;5.00;74.07
18765;BME280;9511;54.242;12.448;2023-02-02T13:21:11;101697.63;;;5.30;74.11
18765;BME280;9511;54.242;12.448;2023-02-02T13:23:44;101700.41;;;5.19;73.90
18765;BME280;9511;54.242;12.448;2023-02-02T13:26:18;101706.88;;;5.53;73.04
18765;BME280;9511;54.242;12.448;2023-02-02T13:28:49;101712.00;;;6.09;72.33
18765;BME280;9511;54.242;12.448;2023-02-02T13:31:21;101718.13;;;5.66;71.33
18765;BME280;9511;54.242;12.448;2023-02-02T13:33:56;101720.47;;;6.35;71.74
18765;BME280;9511;54.242;12.448;2023-02-02T13:36:28;101715.31;;;6.36;70.87
18765;BME280;9511;54.242;12.448;2023-02-02T13:39:01;101724.22;;;6.24;69.64
18765;BME280;9511;54.242;12.448;2023-02-02T13:41:36;101720.47;;;6.35;69.94
18765;BME280;9511;54.242;12.448;2023-02-02T13:44:07;101720.47;;;5.91;70.19
18765;BME280;9511;54.242;12.448;2023-02-02T13:46:44;101728.38;;;6.35;70.61
18765;BME280;9511;54.242;12.448;2023-02-02T13:49:18;101734.44;;;6.19;70.17
18765;BME280;9511;54.242;12.448;2023-02-02T13:51:51;101740.31;;;6.45;70.03
18765;BME280;9511;54.242;12.448;2023-02-02T13:54:48;101746.78;;;6.20;69.81
18765;BME280;9511;54.242;12.448;2023-02-02T13:57:39;101759.56;;;6.14;69.85
18765;BME280;9511;54.242;12.448;2023-02-02T14:00:13;101769.81;;;5.39;70.50
18765;BME280;9511;54.242;12.448;2023-02-02T14:02:43;101772.63;;;5.14;71.31
18765;BME280;9511;54.242;12.448;2023-02-02T14:05:22;101769.84;;;5.11;72.32
18765;BME280;9511;54.242;12.448;2023-02-02T14:07:59;101775.19;;;5.40;72.38
18765;BME280;9511;54.242;12.448;2023-02-02T14:10:31;101773.66;;;5.86;71.27
18765;BME280;9511;54.242;12.448;2023-02-02T14:13:14;101786.00;;;6.32;69.71
18765;BME280;9511;54.242;12.448;2023-02-02T14:16:02;101785.44;;;6.52;69.08
18765;BME280;9511;54.242;12.448;2023-02-02T14:18:55;101783.19;;;6.29;68.78
18765;BME280;9511;54.242;12.448;2023-02-02T14:22:02;101790.06;;;6.56;69.24
18765;BME280;9511;54.242;12.448;2023-02-02T14:24:44;101782.13;;;7.02;67.96
18765;BME280;9511;54.242;12.448;2023-02-02T14:27:51;101785.25;;;8.09;66.67
18765;BME280;9511;54.242;12.448;2023-02-02T14:30:27;101793.03;;;7.73;64.25
18765;BME280;9511;54.242;12.448;2023-02-02T14:33:23;101799.63;;;7.65;64.92
18765;BME280;9511;54.242;12.448;2023-02-02T14:36:01;101813.94;;;7.38;65.43
18765;BME280;9511;54.242;12.448;2023-02-02T14:41:30;101818.34;;;6.60;66.60
18765;BME280;9511;54.242;12.448;2023-02-02T14:44:22;101829.66;;;6.00;68.08
18765;BME280;9511;54.242;12.448;2023-02-02T14:46:52;101827.69;;;5.83;68.90
18765;BME280;9511;54.242;12.448;2023-02-02T14:49:21;101836.09;;;5.49;70.23
18765;BME280;9511;54.242;12.448;2023-02-02T14:51:53;101839.81;;;4.98;71.77
18765;BME280;9511;54.242;12.448;2023-02-02T14:54:25;101849.31;;;4.70;73.05
18765;BME280;9511;54.242;12.448;2023-02-02T14:56:57;101841.88;;;4.36;74.66
18765;BME280;9511;54.242;12.448;2023-02-02T14:59:29;101844.69;;;4.01;76.39
18765;BME280;9511;54.242;12.448;2023-02-02T15:02:17;101855.78;;;3.60;77.82
18765;BME280;9511;54.242;12.448;2023-02-02T15:04:47;101852.31;;;3.48;78.68
18765;BME280;9511;54.242;12.448;2023-02-02T15:14:00;101869.72;;;3.11;80.78
18765;BME280;9511;54.242;12.448;2023-02-02T15:16:34;101884.94;;;3.05;80.89
18765;BME280;9511;54.242;12.448;2023-02-02T15:19:13;101880.97;;;2.86;81.29
18765;BME280;9511;54.242;12.448;2023-02-02T15:21:46;101885.72;;;2.80;81.61
18765;BME280;9511;54.242;12.448;2023-02-02T15:24:19;101892.81;;;2.70;82.08
18765;BME280;9511;54.242;12.448;2023-02-02T15:26:48;101886.63;;;2.69;82.34
18765;BME280;9511;54.242;12.448;2023-02-02T15:29:23;101889.59;;;2.62;82.51
18765;BME280;9511;54.242;12.448;2023-02-02T15:31:54;101890.94;;;2.57;83.12
18765;BME280;9511;54.242;12.448;2023-02-02T15:34:25;101893.09;;;2.51;83.17
18765;BME280;9511;54.242;12.448;2023-02-02T15:36:55;101896.06;;;2.44;83.42
18765;BME280;9511;54.242;12.448;2023-02-02T15:39:26;101885.03;;;2.36;83.68
18765;BME280;9511;54.242;12.448;2023-02-02T15:41:57;101878.66;;;2.32;84.01
18765;BME280;9511;54.242;12.448;2023-02-02T15:44:45;101892.72;;;2.23;84.54
18765;BME280;9511;54.242;12.448;2023-02-02T15:47:15;101905.72;;;2.11;84.81
18765;BME280;9511;54.242;12.448;2023-02-02T15:49:43;101893.13;;;2.05;85.53
18765;BME280;9511;54.242;12.448;2023-02-02T15:52:13;101905.03;;;2.02;85.64
18765;BME280;9511;54.242;12.448;2023-02-02T15:54:50;101902.38;;;1.90;86.21
18765;BME280;9511;54.242;12.448;2023-02-02T15:57:26;101902.81;;;1.84;87.00
18765;BME280;9511;54.242;12.448;2023-02-02T15:59:55;101911.66;;;1.86;86.94
18765;BME280;9511;54.242;12.448;2023-02-02T16:02:28;101916.41;;;1.80;87.61
18765;BME280;9511;54.242;12.448;2023-02-02T16:04:57;101910.59;;;1.73;87.62
18765;BME280;9511;54.242;12.448;2023-02-02T16:07:27;101919.84;;;1.69;87.88
18765;BME280;9511;54.242;12.448;2023-02-02T16:10:01;101928.38;;;1.67;87.96
18765;BME280;9511;54.242;12.448;2023-02-02T16:12:29;101926.19;;;1.61;88.53
18765;BME280;9511;54.242;12.448;2023-02-02T16:14:58;101927.13;;;1.51;88.75
18765;BME280;9511;54.242;12.448;2023-02-02T16:17:27;101931.97;;;1.47;88.76
18765;BME280;9511;54.242;12.448;2023-02-02T16:19:58;101939.31;;;1.41;89.13
18765;BME280;9511;54.242;12.448;2023-02-02T16:22:26;101938.81;;;1.35;88.79
18765;BME280;9511;54.242;12.448;2023-02-02T16:24:57;101945.34;;;1.29;89.46
18765;BME280;9511;54.242;12.448;2023-02-02T16:27:28;101953.97;;;1.28;89.94
18765;BME280;9511;54.242;12.448;2023-02-02T16:30:00;101958.00;;;1.25;90.26
18765;BME280;9511;54.242;12.448;2023-02-02T16:32:31;101958.41;;;1.19;90.41
18765;BME280;9511;54.242;12.448;2023-02-02T16:35:00;101964.72;;;1.11;90.91
18765;BME280;9511;54.242;12.448;2023-02-02T16:37:30;101963.72;;;0.99;91.33
18765;BME280;9511;54.242;12.448;2023-02-02T16:40:15;101964.75;;;0.91;91.94
18765;BME280;9511;54.242;12.448;2023-02-02T16:42:43;101964.38;;;0.86;91.95
18765;BME280;9511;54.242;12.448;2023-02-02T16:45:33;101980.41;;;0.81;91.88
18765;BME280;9511;54.242;12.448;2023-02-02T16:48:23;101979.63;;;0.71;92.46
18765;BME280;9511;54.242;12.448;2023-02-02T16:51:03;101987.72;;;0.64;92.90
18765;BME280;9511;54.242;12.448;2023-02-02T16:53:31;101986.66;;;0.62;93.25
18765;BME280;9511;54.242;12.448;2023-02-02T16:56:00;101989.81;;;0.58;93.91
18765;BME280;9511;54.242;12.448;2023-02-02T16:58:28;101994.09;;;0.58;94.75
18765;BME280;9511;54.242;12.448;2023-02-02T17:01:00;102004.25;;;0.55;95.45
18765;BME280;9511;54.242;12.448;2023-02-02T17:03:31;102003.97;;;0.51;95.94
18765;BME280;9511;54.242;12.448;2023-02-02T17:06:00;102008.94;;;0.48;96.53
18765;BME280;9511;54.242;12.448;2023-02-02T17:08:30;102001.91;;;0.47;97.08
18765;BME280;9511;54.242;12.448;2023-02-02T17:11:04;102009.84;;;0.49;97.21
18765;BME280;9511;54.242;12.448;2023-02-02T17:13:39;102003.06;;;0.51;97.19
18765;BME280;9511;54.242;12.448;2023-02-02T17:16:12;102007.25;;;0.49;97.73
18765;BME280;9511;54.242;12.448;2023-02-02T17:18:41;102003.34;;;0.54;98.35
18765;BME280;9511;54.242;12.448;2023-02-02T17:21:13;102019.75;;;0.53;98.90
18765;BME280;9511;54.242;12.448;2023-02-02T17:23:41;102011.41;;;0.57;99.20
18765;BME280;9511;54.242;12.448;2023-02-02T17:26:09;102021.69;;;0.56;99.45
18765;BME280;9511;54.242;12.448;2023-02-02T17:28:38;102019.75;;;0.53;99.62
18765;BME280;9511;54.242;12.448;2023-02-02T17:31:08;102020.78;;;0.55;99.94
18765;BME280;9511;54.242;12.448;2023-02-02T17:33:38;102025.19;;;0.56;99.84
18765;BME280;9511;54.242;12.448;2023-02-02T17:36:06;102019.88;;;0.55;100.00
18765;BME280;9511;54.242;12.448;2023-02-02T17:38:33;102015.56;;;0.55;100.00